Time;durP1;ratioP1;P1;durP2;ratioP2;P2;SDS_P1;SDS_P2;PMS_P1;PMS_P2;Temp;Humidity;BMP_temperature;BMP_pressure;BME280_temperature;BME280_humidity;BME280_pressure;Samples;Min_cycle;Max_cycle;Signal;HPM_P1;HPM_P2
2022/09/14 00:02:05;;;;;;;4.77;1.90;;;13.00;99.90;;;;;;10566552;28;20207;-78
2022/09/14 00:07:27;;;;;;;3.57;1.50;;;13.00;99.90;;;;;;10567432;28;20273;-84
2022/09/14 00:12:48;;;;;;;11.10;1.90;;;13.10;99.90;;;;;;10566367;28;20185;-80
2022/09/14 00:18:10;;;;;;;6.70;1.57;;;13.10;99.90;;;;;;10546312;28;20253;-84
2022/09/14 00:23:35;;;;;;;4.47;1.80;;;13.20;99.90;;;;;;10545884;28;20208;-84
2022/09/14 00:28:58;;;;;;;5.60;1.57;;;13.20;99.90;;;;;;10548864;28;20197;-83
2022/09/14 00:34:20;;;;;;;2.00;1.20;;;13.20;99.90;;;;;;10562281;28;20519;-83
2022/09/14 00:39:41;;;;;;;6.22;2.00;;;13.20;99.90;;;;;;10562844;28;20197;-84
2022/09/14 00:45:21;;;;;;;4.27;1.60;;;13.30;99.90;;;;;;10563420;28;20507;-84
2022/09/14 00:50:43;;;;;;;4.77;1.70;;;13.30;99.90;;;;;;10548131;28;20186;-82
2022/09/14 00:56:04;;;;;;;5.23;1.87;;;13.30;99.90;;;;;;10563032;28;20220;-81
2022/09/14 01:01:27;;;;;;;5.00;1.30;;;13.30;99.90;;;;;;10544187;28;20193;-83
2022/09/14 01:06:55;;;;;;;5.55;2.08;;;13.20;99.90;;;;;;10562951;28;20264;-84
2022/09/14 01:12:49;;;;;;;6.27;2.03;;;13.30;99.90;;;;;;10547290;28;20193;-82
2022/09/14 01:18:30;;;;;;;6.43;1.87;;;13.30;99.90;;;;;;10414820;28;20253;-83
2022/09/14 01:23:58;;;;;;;4.63;1.57;;;13.20;99.90;;;;;;10443275;28;20207;-81
2022/09/14 01:29:31;;;;;;;3.63;1.93;;;13.30;99.90;;;;;;10433448;28;20323;-81
2022/09/14 01:35:13;;;;;;;4.50;1.70;;;13.30;99.90;;;;;;10433522;28;20354;-84
2022/09/14 01:40:48;;;;;;;5.47;1.20;;;13.30;99.90;;;;;;10433616;28;20249;-84
2022/09/14 01:46:24;;;;;;;4.90;1.70;;;13.20;99.90;;;;;;10432860;28;20208;-80
2022/09/14 01:51:59;;;;;;;6.90;1.83;;;13.20;99.90;;;;;;10486991;28;20209;-84
2022/09/14 01:57:28;;;;;;;4.80;1.77;;;13.30;99.90;;;;;;10561449;28;20231;-82
2022/09/14 02:03:12;;;;;;;4.63;1.80;;;13.30;99.90;;;;;;10561235;28;20189;-81
2022/09/14 02:08:34;;;;;;;5.63;1.90;;;13.20;99.90;;;;;;10561163;28;20196;-84
2022/09/14 02:13:56;;;;;;;3.77;1.30;;;13.20;99.90;;;;;;10560855;28;20214;-84
2022/09/14 02:19:18;;;;;;;5.23;1.63;;;13.10;99.90;;;;;;10535760;28;20235;-84
2022/09/14 02:24:42;;;;;;;5.87;1.70;;;13.10;99.90;;;;;;10539508;28;20192;-81
2022/09/14 02:30:04;;;;;;;6.70;2.23;;;13.00;99.90;;;;;;10561163;28;20531;-84
2022/09/14 02:35:36;;;;;;;6.50;1.83;;;12.90;99.90;;;;;;10564925;28;20220;-77
2022/09/14 02:41:24;;;;;;;6.53;1.83;;;12.80;99.90;;;;;;10548807;28;20199;-84
2022/09/14 02:47:02;;;;;;;5.10;1.50;;;12.80;99.90;;;;;;10562026;28;20196;-83
2022/09/14 02:53:12;;;;;;;4.23;1.43;;;12.80;99.90;;;;;;10528918;28;20205;-84
2022/09/14 02:58:39;;;;;;;4.93;1.60;;;12.80;99.90;;;;;;10480697;28;20285;-79
2022/09/14 03:04:00;;;;;;;4.73;1.50;;;12.90;99.90;;;;;;10453317;28;20478;-83
2022/09/14 03:09:22;;;;;;;5.97;2.40;;;12.90;99.90;;;;;;10466250;28;20212;-82
2022/09/14 03:14:47;;;;;;;7.20;1.33;;;12.90;99.90;;;;;;10457022;28;20314;-79
2022/09/14 03:20:13;;;;;;;5.47;2.60;;;13.00;99.90;;;;;;10452701;28;20289;-84
2022/09/14 03:25:40;;;;;;;9.30;4.13;;;13.00;99.90;;;;;;10462386;28;20215;-84
2022/09/14 03:31:03;;;;;;;5.40;1.97;;;12.90;99.90;;;;;;10498333;28;20230;-80
2022/09/14 03:36:26;;;;;;;5.53;1.83;;;12.80;99.90;;;;;;10565381;28;20299;-83
2022/09/14 03:41:48;;;;;;;5.87;1.47;;;12.80;99.90;;;;;;10550869;28;20197;-83
2022/09/14 03:47:09;;;;;;;5.70;2.13;;;12.80;99.90;;;;;;10565244;28;20204;-80
2022/09/14 03:52:32;;;;;;;6.87;1.40;;;12.80;99.90;;;;;;10564159;28;20492;-84
2022/09/14 03:57:54;;;;;;;5.90;1.63;;;12.90;99.90;;;;;;10564549;28;20230;-79
2022/09/14 04:03:15;;;;;;;4.20;1.60;;;12.90;99.90;;;;;;10565624;28;20189;-84
2022/09/14 04:08:39;;;;;;;5.93;2.10;;;12.90;99.90;;;;;;10565836;28;20209;-84
2022/09/14 04:14:04;;;;;;;4.27;1.83;;;12.90;99.90;;;;;;10564610;28;20367;-81
2022/09/14 04:19:26;;;;;;;7.17;2.40;;;12.90;99.90;;;;;;10563644;28;20272;-81
2022/09/14 04:25:07;;;;;;;4.67;1.80;;;13.00;99.90;;;;;;10581947;28;20202;-80
2022/09/14 04:30:28;;;;;;;7.07;1.90;;;13.00;99.90;;;;;;10562876;28;20480;-81
2022/09/14 04:36:02;;;;;;;6.27;1.57;;;13.00;99.90;;;;;;10548381;28;20231;-83
2022/09/14 04:41:24;;;;;;;3.47;1.10;;;13.10;99.90;;;;;;10562914;28;20195;-82
2022/09/14 04:46:45;;;;;;;6.00;1.77;;;13.00;99.90;;;;;;10563543;28;20205;-80
2022/09/14 04:52:07;;;;;;;10.73;1.87;;;13.00;99.90;;;;;;10562179;28;20190;-80
2022/09/14 04:57:28;;;;;;;7.40;2.07;;;13.00;99.90;;;;;;10562980;28;20223;-83
2022/09/14 05:02:49;;;;;;;5.20;1.70;;;13.00;99.90;;;;;;10561618;28;20193;-83
2022/09/14 05:08:10;;;;;;;4.77;1.83;;;13.10;99.90;;;;;;10561548;28;20227;-81
2022/09/14 05:13:32;;;;;;;5.47;1.70;;;13.10;99.90;;;;;;10547144;28;20418;-78
2022/09/14 05:18:56;;;;;;;7.80;2.17;;;13.10;99.90;;;;;;10560846;28;20272;-81
2022/09/14 05:24:18;;;;;;;5.73;1.27;;;13.10;99.90;;;;;;10562114;28;20200;-80
2022/09/14 05:29:39;;;;;;;5.73;1.67;;;13.30;99.90;;;;;;10529632;28;20256;-81
2022/09/14 05:35:00;;;;;;;8.40;2.07;;;13.30;99.90;;;;;;10562490;28;20406;-83
2022/09/14 05:40:22;;;;;;;9.30;2.53;;;13.40;99.90;;;;;;10561559;28;20386;-80
2022/09/14 05:45:43;;;;;;;7.07;2.23;;;13.50;99.90;;;;;;10561478;28;20192;-80
2022/09/14 05:51:10;;;;;;;7.90;2.08;;;13.50;99.90;;;;;;10542619;28;20235;-84
2022/09/14 05:56:31;;;;;;;8.18;2.25;;;13.60;99.90;;;;;;10560549;28;20220;-78
2022/09/14 06:01:53;;;;;;;6.73;2.57;;;13.60;99.90;;;;;;10561351;28;20255;-83
2022/09/14 06:07:14;;;;;;;7.63;2.17;;;13.70;99.90;;;;;;10549899;28;20188;-77
2022/09/14 06:12:38;;;;;;;9.17;3.10;;;13.80;99.90;;;;;;10564689;28;20202;-84
2022/09/14 06:18:00;;;;;;;4.67;1.70;;;13.90;99.90;;;;;;10562225;28;20460;-81
2022/09/14 06:23:22;;;;;;;4.07;1.50;;;14.00;99.90;;;;;;10559986;28;20199;-80
2022/09/14 06:28:43;;;;;;;5.77;1.57;;;14.10;99.90;;;;;;10546109;28;20502;-83
2022/09/14 06:34:04;;;;;;;5.10;1.52;;;14.20;99.90;;;;;;10568216;28;20234;-84
2022/09/14 06:39:25;;;;;;;6.50;1.57;;;14.70;99.90;;;;;;10568475;28;20213;-81
2022/09/14 06:44:46;;;;;;;4.57;1.20;;;14.70;99.90;;;;;;10552908;28;20264;-82
2022/09/14 06:50:07;;;;;;;5.07;1.30;;;14.50;99.90;;;;;;10549451;28;20192;-82
2022/09/14 06:55:29;;;;;;;5.87;1.50;;;14.20;99.90;;;;;;10567354;28;20530;-84
2022/09/14 07:00:50;;;;;;;7.30;1.80;;;14.20;99.90;;;;;;10567329;28;20492;-82
2022/09/14 07:06:18;;;;;;;4.13;2.05;;;14.40;99.90;;;;;;10576135;28;20492;-77
2022/09/14 07:11:39;;;;;;;7.55;1.52;;;14.50;99.90;;;;;;10571126;28;20208;-86
2022/09/14 07:17:01;;;;;;;3.10;1.33;;;14.80;99.90;;;;;;10573450;28;20217;-81
2022/09/14 07:22:22;;;;;;;3.30;1.20;;;15.10;99.90;;;;;;10535361;28;20225;-80
2022/09/14 07:27:43;;;;;;;8.43;1.65;;;15.50;99.90;;;;;;10559536;28;20227;-78
2022/09/14 07:33:04;;;;;;;2.88;1.02;;;15.70;1.00;;;;;;10561878;28;20239;-85
2022/09/14 07:38:25;;;;;;;2.13;1.05;;;15.70;1.00;;;;;;10557698;28;20218;-83
2022/09/14 07:44:05;;;;;;;5.70;1.23;;;16.40;99.90;;;;;;10560598;28;20249;-77
2022/09/14 07:49:26;;;;;;;7.53;1.20;;;17.20;1.00;;;;;;10599340;28;20561;-86
2022/09/14 07:54:47;;;;;;;5.30;1.20;;;17.50;99.90;;;;;;10555307;28;20229;-83
2022/09/14 08:00:09;;;;;;;6.90;1.63;;;16.90;99.90;;;;;;10559379;28;20246;-78
2022/09/14 08:05:31;;;;;;;4.55;1.38;;;16.20;99.90;;;;;;10579687;28;20200;-77
2022/09/14 08:10:54;;;;;;;4.95;1.10;;;15.80;99.90;;;;;;10581541;28;20225;-78
2022/09/14 08:16:18;;;;;;;5.22;1.80;;;15.80;99.90;;;;;;10565357;28;20260;-79
2022/09/14 08:21:39;;;;;;;3.65;1.38;;;16.90;99.90;;;;;;10553078;28;20212;-77
2022/09/14 08:27:02;;;;;;;3.47;0.90;;;18.00;99.90;;;;;;10584585;28;20207;-79
2022/09/14 08:32:23;;;;;;;3.65;1.10;;;18.10;98.80;;;;;;10593123;28;20743;-81
2022/09/14 08:37:44;;;;;;;4.57;1.40;;;17.50;99.90;;;;;;10544492;28;20216;-80
2022/09/14 08:43:08;;;;;;;4.05;1.00;;;16.70;99.90;;;;;;10540027;28;20207;-78
2022/09/14 08:48:36;;;;;;;6.10;1.15;;;16.30;99.90;;;;;;10566892;28;20236;-80
2022/09/14 08:53:58;;;;;;;5.43;1.33;;;16.20;99.90;;;;;;10567186;28;20214;-84
2022/09/14 08:59:35;;;;;;;6.57;1.40;;;16.00;99.90;;;;;;10600388;28;20483;-80
2022/09/14 09:05:28;;;;;;;3.72;1.33;;;15.80;99.90;;;;;;10588019;28;20256;-82
2022/09/14 09:10:53;;;;;;;5.97;1.15;;;15.70;99.90;;;;;;10580545;28;20226;-85
2022/09/14 09:16:19;;;;;;;6.80;1.80;;;15.70;99.90;;;;;;10587314;28;20233;-79
2022/09/14 09:21:44;;;;;;;3.45;1.38;;;15.70;99.90;;;;;;10573711;28;20209;-79
2022/09/14 09:27:13;;;;;;;5.97;1.40;;;15.60;1.00;;;;;;10598501;28;20198;-77
2022/09/14 09:32:38;;;;;;;6.43;1.30;;;15.90;1.00;;;;;;10579712;28;20268;-79
2022/09/14 09:38:33;;;;;;;11.43;6.30;;;16.20;1.00;;;;;;10552841;28;20248;-77
2022/09/14 09:43:59;;;;;;;4.75;1.60;;;16.20;1.00;;;;;;10541431;28;20227;-78
2022/09/14 09:49:25;;;;;;;8.07;1.55;;;16.30;1.00;;;;;;10594612;28;20215;-79
2022/09/14 09:54:52;;;;;;;3.20;0.90;;;16.30;1.00;;;;;;10538789;28;20322;-79
2022/09/14 10:00:19;;;;;;;1.80;0.93;;;16.20;1.00;;;;;;10565809;28;20211;-80
2022/09/14 10:05:40;;;;;;;5.45;1.08;;;15.80;1.00;;;;;;10585326;28;20213;-78
2022/09/14 10:11:02;;;;;;;4.32;1.48;;;15.80;1.00;;;;;;10601818;28;20213;-83
2022/09/14 10:16:28;;;;;;;5.32;1.00;;;15.70;1.00;;;;;;10593660;28;20464;-84
2022/09/14 10:22:16;;;;;;;2.72;1.10;;;15.90;1.00;;;;;;10582303;28;20617;-82
2022/09/14 10:27:41;;;;;;;6.32;1.67;;;16.20;1.00;;;;;;10584513;28;20235;-80
2022/09/14 10:33:09;;;;;;;3.88;1.25;;;16.50;1.00;;;;;;10573418;28;20224;-81
2022/09/14 10:38:51;;;;;;;2.20;1.08;;;17.20;1.00;;;;;;10574164;28;20621;-81
2022/09/14 10:44:32;;;;;;;2.90;0.90;;;17.60;99.90;;;;;;10577184;28;20199;-79
2022/09/14 10:50:27;;;;;;;3.92;0.95;;;17.70;99.90;;;;;;10590459;28;20486;-83
2022/09/14 10:56:14;;;;;;;2.08;0.77;;;18.30;99.90;;;;;;10573394;28;20318;-82
2022/09/14 11:02:03;;;;;;;2.03;1.15;;;18.80;99.90;;;;;;10590279;28;20205;-82
2022/09/14 11:07:34;;;;;;;4.85;0.98;;;18.70;99.10;;;;;;10604807;28;20269;-87
2022/09/14 11:13:30;;;;;;;6.72;1.52;;;18.60;98.80;;;;;;10572021;28;20233;-81
2022/09/14 11:19:09;;;;;;;5.05;1.67;;;18.60;98.20;;;;;;10549554;28;20223;-81
2022/09/14 11:24:44;;;;;;;4.18;1.35;;;18.50;98.70;;;;;;10557676;28;20217;-80
2022/09/14 11:30:18;;;;;;;5.07;1.50;;;18.30;97.90;;;;;;10534550;28;20472;-80
2022/09/14 11:35:55;;;;;;;3.65;1.35;;;18.10;98.60;;;;;;10580875;28;20224;-82
2022/09/14 11:41:17;;;;;;;1.58;1.05;;;18.00;98.90;;;;;;10571178;28;20196;-85
2022/09/14 11:46:59;;;;;;;4.93;1.55;;;17.80;99.40;;;;;;10574836;28;20499;-81
2022/09/14 11:52:30;;;;;;;3.75;1.20;;;17.60;99.50;;;;;;10557779;28;20245;-88
2022/09/14 11:57:51;;;;;;;5.43;1.10;;;17.30;99.90;;;;;;10544854;28;20217;-80
2022/09/14 12:03:20;;;;;;;3.42;1.17;;;17.50;99.90;;;;;;10547528;28;20188;-80
2022/09/14 12:08:41;;;;;;;4.22;1.20;;;18.20;99.50;;;;;;10571226;28;20256;-80
2022/09/14 12:14:29;;;;;;;3.55;1.27;;;18.90;96.60;;;;;;10571184;28;20208;-80
2022/09/14 12:19:54;;;;;;;9.60;6.30;;;19.20;95.50;;;;;;10549945;28;20199;-79
2022/09/14 12:25:23;;;;;;;3.92;1.30;;;19.10;93.20;;;;;;10588841;28;20248;-80
2022/09/14 12:30:45;;;;;;;4.80;1.00;;;19.30;91.80;;;;;;10591363;28;20552;-81
2022/09/14 12:36:49;;;;;;;2.70;1.00;;;19.50;90.10;;;;;;10572865;28;20450;-80
2022/09/14 12:42:31;;;;;;;2.63;1.30;;;19.50;88.20;;;;;;10558955;28;20217;-80
2022/09/14 12:47:52;;;;;;;4.93;2.22;;;19.10;89.10;;;;;;10585627;28;20197;-83
2022/09/14 12:53:24;;;;;;;4.00;1.55;;;18.70;87.00;;;;;;10574345;28;20284;-77
2022/09/14 12:59:09;;;;;;;5.00;1.40;;;18.40;89.70;;;;;;10604692;28;20233;-80
2022/09/14 13:04:36;;;;;;;3.08;1.25;;;18.20;89.10;;;;;;10586393;28;20588;-86
2022/09/14 13:10:00;;;;;;;1.88;1.08;;;18.50;87.10;;;;;;10570781;28;20247;-80
2022/09/14 13:15:27;;;;;;;5.85;1.33;;;18.70;85.50;;;;;;10575003;28;20580;-79
2022/09/14 13:20:51;;;;;;;3.40;1.20;;;18.50;87.60;;;;;;10557185;28;20207;-79
2022/09/14 13:26:21;;;;;;;5.82;2.38;;;18.30;88.00;;;;;;10577850;28;20244;-81
2022/09/14 13:31:44;;;;;;;4.00;1.85;;;18.10;90.50;;;;;;10554082;28;20254;-80
2022/09/14 13:37:06;;;;;;;3.90;1.30;;;17.90;90.20;;;;;;10603352;28;20313;-80
2022/09/14 13:42:29;;;;;;;2.42;1.10;;;17.60;90.90;;;;;;10570803;28;20211;-81
2022/09/14 13:47:52;;;;;;;5.07;2.25;;;17.60;92.20;;;;;;10556455;28;20298;-85
2022/09/14 13:53:36;;;;;;;3.92;1.60;;;17.60;92.30;;;;;;10572213;28;20238;-81
2022/09/14 13:59:21;;;;;;;6.10;1.70;;;17.40;94.30;;;;;;10568642;28;20246;-82
2022/09/14 14:04:47;;;;;;;7.35;2.15;;;17.40;94.70;;;;;;10567573;28;20262;-88
2022/09/14 14:10:27;;;;;;;6.28;2.10;;;17.40;94.90;;;;;;10572885;28;20228;-85
2022/09/14 14:15:51;;;;;;;5.75;1.52;;;17.40;93.90;;;;;;10572865;28;20448;-85
2022/09/14 14:21:21;;;;;;;4.13;1.23;;;17.50;93.50;;;;;;10562031;28;20226;-87
2022/09/14 14:26:56;;;;;;;2.70;1.27;;;17.70;93.60;;;;;;10588126;28;20468;-81
2022/09/14 14:32:17;;;;;;;11.68;1.65;;;18.00;92.60;;;;;;10569605;28;20235;-82
2022/09/14 14:37:39;;;;;;;3.75;1.60;;;18.00;92.30;;;;;;10585949;28;20224;-95
2022/09/14 14:43:02;;;;;;;20.00;11.63;;;18.00;90.90;;;;;;10566168;28;20200;-82
2022/09/14 14:48:28;;;;;;;4.78;1.73;;;17.80;89.90;;;;;;10530666;28;20200;-88
2022/09/14 14:53:49;;;;;;;8.98;2.25;;;17.60;89.80;;;;;;10542017;28;20252;-87
2022/09/14 14:59:33;;;;;;;41.20;2.67;;;17.50;88.50;;;;;;10536262;28;20211;-81
2022/09/14 15:04:56;;;;;;;5.82;1.60;;;17.60;86.60;;;;;;10550372;28;20198;-87
2022/09/14 15:10:21;;;;;;;5.93;1.48;;;17.50;83.00;;;;;;10566423;28;20192;-84
2022/09/14 15:15:43;;;;;;;3.60;1.92;;;17.20;81.70;;;;;;10575391;28;20400;-90
2022/09/14 15:21:05;;;;;;;3.97;1.45;;;17.00;83.80;;;;;;10576439;28;20502;-85
2022/09/14 15:26:26;;;;;;;4.93;1.77;;;17.00;83.00;;;;;;10568689;28;20209;-85
2022/09/14 15:31:47;;;;;;;3.90;1.48;;;16.90;83.90;;;;;;10583628;28;20231;-85
2022/09/14 15:37:09;;;;;;;2.47;1.33;;;16.90;85.20;;;;;;10597384;28;20228;-86
2022/09/14 15:42:30;;;;;;;2.97;1.58;;;16.90;82.90;;;;;;10582136;28;20250;-86
2022/09/14 15:47:53;;;;;;;2.30;1.20;;;16.70;81.90;;;;;;10592593;28;20201;-89
2022/09/14 15:53:17;;;;;;;3.67;1.38;;;16.70;80.70;;;;;;10598252;28;20190;-88
2022/09/14 15:58:38;;;;;;;3.90;1.58;;;16.70;83.60;;;;;;10583187;28;20535;-91
2022/09/14 16:04:02;;;;;;;2.80;1.40;;;16.50;85.00;;;;;;10579659;28;20206;-90
2022/09/14 16:09:23;;;;;;;4.03;1.30;;;16.40;86.40;;;;;;10582599;28;20486;-85
2022/09/14 16:14:48;;;;;;;3.75;1.85;;;16.40;87.60;;;;;;10582958;28;20197;-90
2022/09/14 16:20:09;;;;;;;2.80;1.63;;;16.30;87.70;;;;;;10590379;28;20224;-91
2022/09/14 16:25:39;;;;;;;5.30;3.47;;;16.20;90.40;;;;;;10572295;28;20191;-90
2022/09/14 16:31:13;;;;;;;6.13;3.38;;;16.10;90.90;;;;;;10593349;28;20224;-89
2022/09/14 16:36:55;;;;;;;5.50;2.40;;;16.10;91.60;;;;;;10594737;28;20256;-91
2022/09/14 16:42:19;;;;;;;5.13;2.22;;;16.00;92.00;;;;;;10599684;28;20191;-90
2022/09/14 16:47:41;;;;;;;5.32;2.20;;;15.80;92.80;;;;;;10583055;28;20405;-88
2022/09/14 16:53:02;;;;;;;6.15;2.42;;;15.80;93.20;;;;;;10586331;28;20197;-86
2022/09/14 16:58:25;;;;;;;5.25;2.40;;;15.70;93.80;;;;;;10600577;28;20218;-87
2022/09/14 17:04:07;;;;;;;4.65;2.05;;;15.70;94.10;;;;;;10606581;28;20188;-90
2022/09/14 17:09:34;;;;;;;3.95;1.73;;;15.60;93.90;;;;;;10599798;28;20288;-90
2022/09/14 17:14:57;;;;;;;4.65;2.10;;;15.60;94.10;;;;;;10633299;28;20212;-87
2022/09/14 17:20:24;;;;;;;4.90;2.17;;;15.50;94.20;;;;;;10605181;28;20232;-89
2022/09/14 17:26:06;;;;;;;5.05;1.85;;;15.50;94.60;;;;;;10589084;28;20272;-88
2022/09/14 17:31:36;;;;;;;7.30;2.30;;;15.50;95.20;;;;;;10585471;28;20299;-89
2022/09/14 17:36:58;;;;;;;3.53;1.90;;;15.40;95.10;;;;;;10546582;28;20275;-91
2022/09/14 17:42:49;;;;;;;4.60;2.42;;;15.40;95.60;;;;;;10534979;28;20523;-87
2022/09/14 17:48:11;;;;;;;10.27;5.05;;;15.40;96.30;;;;;;10547591;28;20252;-88
2022/09/14 17:53:40;;;;;;;20.48;9.93;;;15.40;96.70;;;;;;10536492;28;20194;-86
2022/09/14 17:59:05;;;;;;;14.02;6.75;;;15.40;97.20;;;;;;10537800;28;20224;-88
2022/09/14 18:04:27;;;;;;;7.47;3.17;;;15.30;97.40;;;;;;10558601;28;20212;-91
2022/09/14 18:09:48;;;;;;;6.10;2.63;;;15.20;97.70;;;;;;10580984;28;20399;-90
2022/09/14 18:15:13;;;;;;;7.68;4.97;;;15.30;98.10;;;;;;10566865;28;20560;-90
2022/09/14 18:20:37;;;;;;;12.25;5.95;;;15.20;98.30;;;;;;10578341;28;20238;-91
2022/09/14 18:26:00;;;;;;;10.68;6.45;;;15.10;98.60;;;;;;10582563;28;20395;-89
2022/09/14 18:31:21;;;;;;;9.57;5.60;;;15.10;99.20;;;;;;10605570;28;20483;-90
2022/09/14 18:36:43;;;;;;;12.38;6.80;;;15.10;99.40;;;;;;10600210;28;20313;-89
2022/09/14 18:42:05;;;;;;;24.17;12.05;;;15.10;99.60;;;;;;10584563;28;20365;-87
2022/09/14 18:47:26;;;;;;;28.42;14.95;;;15.00;99.90;;;;;;10583523;28;20273;-90
2022/09/14 18:52:51;;;;;;;23.27;11.23;;;15.00;99.90;;;;;;10583876;28;20388;-90
2022/09/14 18:58:13;;;;;;;22.02;10.10;;;15.00;99.90;;;;;;10588253;28;20238;-86
2022/09/14 19:03:36;;;;;;;29.23;13.63;;;14.90;99.90;;;;;;10577345;28;20202;-86
2022/09/14 19:08:57;;;;;;;25.02;10.57;;;14.90;99.90;;;;;;10599769;28;20394;-88
2022/09/14 19:14:19;;;;;;;35.85;10.63;;;14.90;99.90;;;;;;10541755;28;20222;-89
2022/09/14 19:19:42;;;;;;;19.88;7.65;;;14.90;99.90;;;;;;10583787;28;20222;-84
2022/09/14 19:25:04;;;;;;;16.85;5.70;;;14.90;99.90;;;;;;10559312;28;20224;-86
2022/09/14 19:30:25;;;;;;;15.27;5.53;;;14.80;99.90;;;;;;10581814;28;20236;-84
2022/09/14 19:35:47;;;;;;;9.57;3.97;;;14.80;99.90;;;;;;10603105;28;20181;-87
2022/09/14 19:41:11;;;;;;;9.80;3.67;;;14.80;99.90;;;;;;10570772;28;20202;-87
2022/09/14 19:46:32;;;;;;;10.00;3.30;;;14.80;99.90;;;;;;10555999;28;20203;-88
2022/09/14 19:51:55;;;;;;;9.10;2.78;;;14.80;99.10;;;;;;10524839;28;20257;-88
2022/09/14 19:57:16;;;;;;;8.35;2.13;;;14.80;98.80;;;;;;10524666;28;20252;-90
2022/09/14 20:02:38;;;;;;;4.15;2.40;;;14.70;97.70;;;;;;10539810;28;20202;-85
2022/09/14 20:08:01;;;;;;;6.65;2.33;;;14.70;96.90;;;;;;10556184;28;20197;-87
2022/09/14 20:13:22;;;;;;;6.93;1.77;;;14.80;96.60;;;;;;10588880;28;20392;-89
2022/09/14 20:18:46;;;;;;;7.28;2.17;;;14.80;96.60;;;;;;10578320;28;20235;-85
2022/09/14 20:24:11;;;;;;;3.97;1.60;;;14.70;96.60;;;;;;10596629;28;20502;-90
2022/09/14 20:29:36;;;;;;;6.60;2.40;;;14.70;96.80;;;;;;10580362;28;20220;-89
2022/09/14 20:34:57;;;;;;;6.35;2.60;;;14.70;94.80;;;;;;10577603;28;20225;-88
2022/09/14 20:40:19;;;;;;;2.92;1.67;;;14.70;92.00;;;;;;10577220;28;20256;-89
2022/09/14 20:45:41;;;;;;;4.35;2.00;;;14.70;84.70;;;;;;10610030;28;20189;-84
2022/09/14 20:51:03;;;;;;;3.35;1.67;;;14.70;66.90;;;;;;10581758;28;20506;-89
2022/09/14 20:56:27;;;;;;;6.60;2.00;;;14.70;75.10;;;;;;10578354;28;20265;-89
2022/09/14 21:01:50;;;;;;;4.47;1.90;;;14.70;64.50;;;;;;10563975;28;20195;-90
2022/09/14 21:07:11;;;;;;;5.80;1.92;;;14.60;1.00;;;;;;10556143;28;20484;-86
2022/09/14 21:12:32;;;;;;;6.97;2.10;;;14.60;1.00;;;;;;10578275;28;20195;-87
2022/09/14 21:17:54;;;;;;;5.25;2.30;;;14.60;1.00;;;;;;10584177;28;20233;-88
2022/09/14 21:23:16;;;;;;;5.00;1.77;;;14.50;1.00;;;;;;10554608;28;20193;-88
2022/09/14 21:28:39;;;;;;;5.97;2.30;;;14.50;1.00;;;;;;10535403;28;20405;-88
2022/09/14 21:34:03;;;;;;;2.78;1.65;;;14.50;1.00;;;;;;10590304;28;20237;-88
2022/09/14 21:39:25;;;;;;;5.80;2.42;;;14.50;1.00;;;;;;10573373;28;20221;-88
2022/09/14 21:44:47;;;;;;;4.10;1.60;;;14.50;1.00;;;;;;10573547;28;20359;-84
2022/09/14 21:50:09;;;;;;;6.05;2.10;;;14.50;1.00;;;;;;10572821;28;20223;-86
2022/09/14 21:55:31;;;;;;;5.65;2.42;;;14.40;1.00;;;;;;10576935;28;20272;-85
2022/09/14 22:00:57;;;;;;;3.85;1.80;;;14.40;1.00;;;;;;10563331;28;20273;-87
2022/09/14 22:06:21;;;;;;;4.28;2.20;;;14.40;1.00;;;;;;10581946;28;20200;-86
2022/09/14 22:11:44;;;;;;;5.82;2.50;;;14.40;1.00;;;;;;10581042;28;20195;-87
2022/09/14 22:17:05;;;;;;;4.88;1.90;;;14.40;1.00;;;;;;10570978;28;20261;-88
2022/09/14 22:22:26;;;;;;;3.42;1.80;;;14.40;1.00;;;;;;10566592;28;20398;-85
2022/09/14 22:27:48;;;;;;;2.75;1.65;;;14.30;1.00;;;;;;10577429;28;20209;-89
2022/09/14 22:33:09;;;;;;;4.00;2.20;;;14.30;1.00;;;;;;10579541;28;20429;-87
2022/09/14 22:38:35;;;;;;;7.85;3.10;;;14.30;1.00;;;;;;10596634;28;20449;-87
2022/09/14 22:43:56;;;;;;;5.10;2.65;;;14.30;1.00;;;;;;10581916;28;20214;-85
2022/09/14 22:49:18;;;;;;;4.35;2.67;;;14.20;30.60;;;;;;10595939;28;20193;-85
2022/09/14 22:54:40;;;;;;;5.22;2.25;;;14.20;94.60;;;;;;10593157;28;20197;-86
2022/09/14 23:00:02;;;;;;;5.57;1.70;;;14.20;99.90;;;;;;10592469;28;20303;-89
2022/09/14 23:05:23;;;;;;;3.75;2.00;;;14.30;99.90;;;;;;10592714;28;20191;-88
2022/09/14 23:10:45;;;;;;;4.90;2.03;;;14.20;99.90;;;;;;10577376;28;20416;-88
2022/09/14 23:16:12;;;;;;;3.77;2.27;;;14.20;99.90;;;;;;10577473;28;20587;-90
2022/09/14 23:21:34;;;;;;;4.28;1.73;;;14.20;99.90;;;;;;10578297;28;20245;-87
2022/09/14 23:26:56;;;;;;;7.00;2.25;;;14.20;99.90;;;;;;10576708;28;20227;-88
2022/09/14 23:32:18;;;;;;;8.93;2.90;;;14.20;99.90;;;;;;10577330;28;20304;-86
2022/09/14 23:37:39;;;;;;;8.40;3.03;;;14.20;99.90;;;;;;10563098;28;20221;-89
2022/09/14 23:43:01;;;;;;;7.20;2.40;;;14.20;99.90;;;;;;10577353;28;20200;-87
2022/09/14 23:48:22;;;;;;;4.35;1.98;;;14.20;99.90;;;;;;10579636;28;20202;-86
2022/09/14 23:53:44;;;;;;;6.80;2.10;;;14.10;99.90;;;;;;10576492;28;20189;-87
2022/09/14 23:59:08;;;;;;;7.87;2.10;;;14.10;99.90;;;;;;10575467;28;20496;-88
